sensor_id;sensor_type;location;lat;lon;timestamp;P1;durP1;ratioP1;P2;durP2;ratioP2
44670;SDS011;48397;53.016;-2.260;2023-05-29T00:02:15;24.15;;;3.97;;
44670;SDS011;48397;53.016;-2.260;2023-05-29T00:04:43;15.80;;;3.92;;
44670;SDS011;48397;53.016;-2.260;2023-05-29T00:07:11;14.73;;;4.25;;
44670;SDS011;48397;53.016;-2.260;2023-05-29T00:09:39;15.77;;;3.30;;
44670;SDS011;48397;53.016;-2.260;2023-05-29T00:12:07;16.23;;;3.80;;
44670;SDS011;48397;53.016;-2.260;2023-05-29T00:14:34;16.67;;;3.83;;
44670;SDS011;48397;53.016;-2.260;2023-05-29T00:17:02;21.65;;;3.80;;
44670;SDS011;48397;53.016;-2.260;2023-05-29T00:19:31;12.45;;;3.38;;
44670;SDS011;48397;53.016;-2.260;2023-05-29T00:21:58;21.20;;;3.67;;
44670;SDS011;48397;53.016;-2.260;2023-05-29T00:24:26;14.30;;;3.50;;
44670;SDS011;48397;53.016;-2.260;2023-05-29T00:26:54;18.08;;;4.25;;
44670;SDS011;48397;53.016;-2.260;2023-05-29T00:29:22;19.20;;;4.13;;
44670;SDS011;48397;53.016;-2.260;2023-05-29T00:31:49;16.13;;;3.45;;
44670;SDS011;48397;53.016;-2.260;2023-05-29T00:34:24;19.27;;;3.75;;
44670;SDS011;48397;53.016;-2.260;2023-05-29T00:36:53;16.55;;;4.18;;
44670;SDS011;48397;53.016;-2.260;2023-05-29T00:39:24;10.27;;;3.13;;
44670;SDS011;48397;53.016;-2.260;2023-05-29T00:41:52;13.60;;;3.65;;
44670;SDS011;48397;53.016;-2.260;2023-05-29T00:44:21;18.55;;;4.57;;
44670;SDS011;48397;53.016;-2.260;2023-05-29T00:49:20;16.15;;;3.35;;
44670;SDS011;48397;53.016;-2.260;2023-05-29T00:58:19;17.38;;;3.90;;
44670;SDS011;48397;53.016;-2.260;2023-05-29T01:00:48;14.50;;;3.35;;
44670;SDS011;48397;53.016;-2.260;2023-05-29T01:03:16;16.00;;;3.33;;
44670;SDS011;48397;53.016;-2.260;2023-05-29T01:05:48;13.88;;;3.65;;
44670;SDS011;48397;53.016;-2.260;2023-05-29T01:08:16;15.63;;;4.00;;
44670;SDS011;48397;53.016;-2.260;2023-05-29T01:13:25;21.90;;;3.72;;
44670;SDS011;48397;53.016;-2.260;2023-05-29T01:29:16;16.95;;;3.15;;
44670;SDS011;48397;53.016;-2.260;2023-05-29T01:31:49;16.88;;;3.85;;
44670;SDS011;48397;53.016;-2.260;2023-05-29T01:34:18;11.88;;;3.60;;
44670;SDS011;48397;53.016;-2.260;2023-05-29T01:36:47;14.75;;;3.65;;
44670;SDS011;48397;53.016;-2.260;2023-05-29T01:44:11;20.83;;;3.65;;
44670;SDS011;48397;53.016;-2.260;2023-05-29T01:46:46;19.00;;;3.60;;
44670;SDS011;48397;53.016;-2.260;2023-05-29T01:49:15;17.13;;;3.83;;
44670;SDS011;48397;53.016;-2.260;2023-05-29T01:51:43;22.08;;;4.82;;
44670;SDS011;48397;53.016;-2.260;2023-05-29T01:54:11;16.17;;;3.63;;
44670;SDS011;48397;53.016;-2.260;2023-05-29T01:56:40;14.60;;;3.78;;
44670;SDS011;48397;53.016;-2.260;2023-05-29T02:01:31;20.05;;;3.90;;
44670;SDS011;48397;53.016;-2.260;2023-05-29T02:03:59;14.80;;;4.15;;
44670;SDS011;48397;53.016;-2.260;2023-05-29T02:06:27;19.27;;;3.85;;
44670;SDS011;48397;53.016;-2.260;2023-05-29T02:11:23;18.73;;;3.70;;
44670;SDS011;48397;53.016;-2.260;2023-05-29T02:13:52;14.32;;;3.40;;
44670;SDS011;48397;53.016;-2.260;2023-05-29T02:16:21;18.15;;;3.85;;
44670;SDS011;48397;53.016;-2.260;2023-05-29T02:18:49;23.65;;;4.28;;
44670;SDS011;48397;53.016;-2.260;2023-05-29T02:21:18;22.63;;;4.30;;
44670;SDS011;48397;53.016;-2.260;2023-05-29T02:23:48;18.35;;;3.60;;
44670;SDS011;48397;53.016;-2.260;2023-05-29T02:26:19;15.68;;;4.95;;
44670;SDS011;48397;53.016;-2.260;2023-05-29T02:28:48;20.55;;;4.93;;
44670;SDS011;48397;53.016;-2.260;2023-05-29T02:31:15;16.13;;;3.88;;
44670;SDS011;48397;53.016;-2.260;2023-05-29T02:33:43;17.55;;;3.90;;
44670;SDS011;48397;53.016;-2.260;2023-05-29T02:36:11;17.08;;;4.65;;
44670;SDS011;48397;53.016;-2.260;2023-05-29T02:38:39;20.63;;;4.63;;
44670;SDS011;48397;53.016;-2.260;2023-05-29T02:41:07;17.27;;;3.75;;
44670;SDS011;48397;53.016;-2.260;2023-05-29T02:43:35;17.30;;;4.13;;
44670;SDS011;48397;53.016;-2.260;2023-05-29T02:46:05;14.82;;;3.58;;
44670;SDS011;48397;53.016;-2.260;2023-05-29T02:48:33;20.92;;;4.63;;
44670;SDS011;48397;53.016;-2.260;2023-05-29T02:51:01;16.20;;;3.97;;
44670;SDS011;48397;53.016;-2.260;2023-05-29T02:53:28;17.30;;;4.13;;
44670;SDS011;48397;53.016;-2.260;2023-05-29T02:55:57;18.42;;;4.65;;
44670;SDS011;48397;53.016;-2.260;2023-05-29T02:58:27;15.85;;;4.47;;
44670;SDS011;48397;53.016;-2.260;2023-05-29T03:00:55;14.00;;;4.15;;
44670;SDS011;48397;53.016;-2.260;2023-05-29T03:03:26;13.15;;;3.92;;
44670;SDS011;48397;53.016;-2.260;2023-05-29T03:05:58;16.02;;;3.55;;
44670;SDS011;48397;53.016;-2.260;2023-05-29T03:08:26;14.45;;;4.03;;
44670;SDS011;48397;53.016;-2.260;2023-05-29T03:10:55;15.40;;;3.78;;
44670;SDS011;48397;53.016;-2.260;2023-05-29T03:13:24;19.42;;;4.68;;
44670;SDS011;48397;53.016;-2.260;2023-05-29T03:16:00;13.60;;;4.15;;
44670;SDS011;48397;53.016;-2.260;2023-05-29T03:18:31;19.42;;;4.63;;
44670;SDS011;48397;53.016;-2.260;2023-05-29T03:21:00;11.95;;;4.22;;
44670;SDS011;48397;53.016;-2.260;2023-05-29T03:23:35;21.67;;;4.63;;
44670;SDS011;48397;53.016;-2.260;2023-05-29T03:26:05;17.90;;;4.45;;
44670;SDS011;48397;53.016;-2.260;2023-05-29T03:28:35;15.63;;;4.53;;
44670;SDS011;48397;53.016;-2.260;2023-05-29T03:31:05;22.15;;;5.60;;
44670;SDS011;48397;53.016;-2.260;2023-05-29T03:33:35;19.30;;;4.93;;
44670;SDS011;48397;53.016;-2.260;2023-05-29T03:36:12;20.77;;;4.63;;
44670;SDS011;48397;53.016;-2.260;2023-05-29T03:38:41;17.88;;;4.28;;
44670;SDS011;48397;53.016;-2.260;2023-05-29T03:41:10;18.50;;;4.75;;
44670;SDS011;48397;53.016;-2.260;2023-05-29T03:43:38;15.50;;;4.45;;
44670;SDS011;48397;53.016;-2.260;2023-05-29T03:46:06;15.02;;;4.22;;
44670;SDS011;48397;53.016;-2.260;2023-05-29T03:48:37;16.10;;;3.65;;
44670;SDS011;48397;53.016;-2.260;2023-05-29T03:51:05;13.90;;;3.25;;
44670;SDS011;48397;53.016;-2.260;2023-05-29T03:53:38;17.25;;;4.28;;
44670;SDS011;48397;53.016;-2.260;2023-05-29T03:56:07;20.42;;;4.43;;
44670;SDS011;48397;53.016;-2.260;2023-05-29T03:58:36;19.63;;;4.35;;
44670;SDS011;48397;53.016;-2.260;2023-05-29T04:01:04;18.88;;;4.63;;
44670;SDS011;48397;53.016;-2.260;2023-05-29T04:06:00;14.00;;;4.53;;
44670;SDS011;48397;53.016;-2.260;2023-05-29T04:10:56;22.58;;;4.88;;
44670;SDS011;48397;53.016;-2.260;2023-05-29T04:13:24;18.67;;;4.28;;
44670;SDS011;48397;53.016;-2.260;2023-05-29T04:15:52;28.88;;;5.60;;
44670;SDS011;48397;53.016;-2.260;2023-05-29T04:18:21;15.10;;;4.40;;
44670;SDS011;48397;53.016;-2.260;2023-05-29T04:20:49;17.35;;;4.57;;
44670;SDS011;48397;53.016;-2.260;2023-05-29T04:25:46;18.73;;;4.70;;
44670;SDS011;48397;53.016;-2.260;2023-05-29T04:28:20;19.02;;;5.10;;
44670;SDS011;48397;53.016;-2.260;2023-05-29T04:30:50;17.60;;;5.22;;
44670;SDS011;48397;53.016;-2.260;2023-05-29T04:33:20;16.40;;;5.13;;
44670;SDS011;48397;53.016;-2.260;2023-05-29T04:35:49;13.40;;;4.00;;
44670;SDS011;48397;53.016;-2.260;2023-05-29T04:38:18;14.27;;;4.32;;
44670;SDS011;48397;53.016;-2.260;2023-05-29T04:40:53;16.20;;;3.72;;
44670;SDS011;48397;53.016;-2.260;2023-05-29T04:43:26;12.85;;;4.03;;
44670;SDS011;48397;53.016;-2.260;2023-05-29T04:46:01;12.77;;;4.10;;
44670;SDS011;48397;53.016;-2.260;2023-05-29T04:48:32;15.52;;;3.65;;
44670;SDS011;48397;53.016;-2.260;2023-05-29T04:51:00;12.32;;;4.13;;
44670;SDS011;48397;53.016;-2.260;2023-05-29T04:53:30;12.40;;;4.57;;
44670;SDS011;48397;53.016;-2.260;2023-05-29T04:55:58;13.65;;;4.25;;
44670;SDS011;48397;53.016;-2.260;2023-05-29T04:58:26;18.15;;;4.68;;
44670;SDS011;48397;53.016;-2.260;2023-05-29T05:00:56;17.38;;;4.82;;
44670;SDS011;48397;53.016;-2.260;2023-05-29T05:03:29;19.88;;;4.75;;
44670;SDS011;48397;53.016;-2.260;2023-05-29T05:06:02;17.23;;;4.10;;
44670;SDS011;48397;53.016;-2.260;2023-05-29T05:08:31;14.23;;;4.32;;
44670;SDS011;48397;53.016;-2.260;2023-05-29T05:11:01;20.15;;;5.40;;
44670;SDS011;48397;53.016;-2.260;2023-05-29T05:13:29;16.02;;;5.40;;
44670;SDS011;48397;53.016;-2.260;2023-05-29T05:15:57;20.75;;;5.28;;
44670;SDS011;48397;53.016;-2.260;2023-05-29T05:20:59;20.52;;;4.60;;
44670;SDS011;48397;53.016;-2.260;2023-05-29T05:23:29;17.75;;;4.90;;
44670;SDS011;48397;53.016;-2.260;2023-05-29T05:26:02;20.55;;;5.28;;
44670;SDS011;48397;53.016;-2.260;2023-05-29T05:28:32;14.65;;;5.10;;
44670;SDS011;48397;53.016;-2.260;2023-05-29T05:31:05;12.18;;;5.07;;
44670;SDS011;48397;53.016;-2.260;2023-05-29T05:33:33;18.02;;;4.65;;
44670;SDS011;48397;53.016;-2.260;2023-05-29T05:36:04;15.88;;;4.95;;
44670;SDS011;48397;53.016;-2.260;2023-05-29T05:38:32;16.23;;;4.85;;
44670;SDS011;48397;53.016;-2.260;2023-05-29T05:41:00;19.90;;;4.57;;
44670;SDS011;48397;53.016;-2.260;2023-05-29T05:43:31;16.88;;;4.53;;
44670;SDS011;48397;53.016;-2.260;2023-05-29T05:46:06;17.13;;;4.30;;
44670;SDS011;48397;53.016;-2.260;2023-05-29T05:48:35;15.43;;;4.10;;
44670;SDS011;48397;53.016;-2.260;2023-05-29T05:51:03;16.75;;;3.95;;
44670;SDS011;48397;53.016;-2.260;2023-05-29T05:53:32;12.32;;;3.83;;
44670;SDS011;48397;53.016;-2.260;2023-05-29T05:56:00;14.80;;;4.05;;
44670;SDS011;48397;53.016;-2.260;2023-05-29T05:58:28;11.68;;;3.10;;
44670;SDS011;48397;53.016;-2.260;2023-05-29T06:00:57;16.15;;;3.88;;
44670;SDS011;48397;53.016;-2.260;2023-05-29T06:03:26;12.57;;;3.58;;
44670;SDS011;48397;53.016;-2.260;2023-05-29T06:06:01;14.00;;;3.70;;
44670;SDS011;48397;53.016;-2.260;2023-05-29T06:08:29;14.82;;;3.88;;
44670;SDS011;48397;53.016;-2.260;2023-05-29T06:10:58;9.73;;;2.63;;
44670;SDS011;48397;53.016;-2.260;2023-05-29T06:13:26;8.73;;;2.92;;
44670;SDS011;48397;53.016;-2.260;2023-05-29T06:15:59;12.23;;;3.00;;
44670;SDS011;48397;53.016;-2.260;2023-05-29T06:18:27;10.98;;;2.70;;
44670;SDS011;48397;53.016;-2.260;2023-05-29T06:20:55;11.77;;;2.90;;
44670;SDS011;48397;53.016;-2.260;2023-05-29T06:23:25;9.18;;;3.08;;
44670;SDS011;48397;53.016;-2.260;2023-05-29T06:25:54;10.00;;;2.75;;
44670;SDS011;48397;53.016;-2.260;2023-05-29T06:28:22;12.82;;;3.25;;
44670;SDS011;48397;53.016;-2.260;2023-05-29T06:30:50;10.52;;;3.45;;
44670;SDS011;48397;53.016;-2.260;2023-05-29T06:33:18;11.57;;;3.00;;
44670;SDS011;48397;53.016;-2.260;2023-05-29T06:35:48;7.07;;;2.38;;
44670;SDS011;48397;53.016;-2.260;2023-05-29T06:38:20;8.68;;;2.53;;
44670;SDS011;48397;53.016;-2.260;2023-05-29T06:40:48;11.85;;;2.67;;
44670;SDS011;48397;53.016;-2.260;2023-05-29T06:43:16;9.75;;;2.90;;
44670;SDS011;48397;53.016;-2.260;2023-05-29T06:45:47;10.52;;;2.53;;
44670;SDS011;48397;53.016;-2.260;2023-05-29T06:48:17;14.57;;;3.28;;
44670;SDS011;48397;53.016;-2.260;2023-05-29T06:50:47;9.38;;;2.58;;
44670;SDS011;48397;53.016;-2.260;2023-05-29T06:53:34;10.03;;;2.77;;
44670;SDS011;48397;53.016;-2.260;2023-05-29T06:56:03;10.18;;;2.80;;
44670;SDS011;48397;53.016;-2.260;2023-05-29T06:58:33;8.75;;;3.03;;
44670;SDS011;48397;53.016;-2.260;2023-05-29T07:01:01;11.48;;;2.72;;
44670;SDS011;48397;53.016;-2.260;2023-05-29T07:03:36;8.48;;;2.35;;
44670;SDS011;48397;53.016;-2.260;2023-05-29T07:06:05;7.80;;;2.05;;
44670;SDS011;48397;53.016;-2.260;2023-05-29T07:08:37;8.70;;;2.35;;
44670;SDS011;48397;53.016;-2.260;2023-05-29T07:11:06;7.32;;;2.17;;
44670;SDS011;48397;53.016;-2.260;2023-05-29T07:16:02;9.70;;;2.55;;
44670;SDS011;48397;53.016;-2.260;2023-05-29T07:18:51;8.05;;;2.50;;
44670;SDS011;48397;53.016;-2.260;2023-05-29T07:21:19;9.10;;;2.45;;
44670;SDS011;48397;53.016;-2.260;2023-05-29T07:23:49;10.32;;;2.63;;
44670;SDS011;48397;53.016;-2.260;2023-05-29T07:28:45;11.35;;;2.80;;
44670;SDS011;48397;53.016;-2.260;2023-05-29T07:31:13;9.05;;;2.50;;
44670;SDS011;48397;53.016;-2.260;2023-05-29T07:33:41;8.65;;;2.20;;
44670;SDS011;48397;53.016;-2.260;2023-05-29T07:36:14;9.82;;;2.42;;
44670;SDS011;48397;53.016;-2.260;2023-05-29T07:38:45;10.73;;;2.28;;
44670;SDS011;48397;53.016;-2.260;2023-05-29T07:41:18;6.60;;;2.22;;
44670;SDS011;48397;53.016;-2.260;2023-05-29T07:43:52;8.70;;;2.25;;
44670;SDS011;48397;53.016;-2.260;2023-05-29T07:46:21;5.68;;;1.42;;
44670;SDS011;48397;53.016;-2.260;2023-05-29T07:48:53;8.55;;;2.42;;
44670;SDS011;48397;53.016;-2.260;2023-05-29T07:51:21;11.48;;;2.58;;
44670;SDS011;48397;53.016;-2.260;2023-05-29T07:53:50;8.75;;;2.00;;
44670;SDS011;48397;53.016;-2.260;2023-05-29T07:56:21;6.43;;;2.10;;
44670;SDS011;48397;53.016;-2.260;2023-05-29T07:58:55;9.00;;;2.22;;
44670;SDS011;48397;53.016;-2.260;2023-05-29T08:01:23;7.57;;;2.42;;
44670;SDS011;48397;53.016;-2.260;2023-05-29T08:06:27;6.90;;;1.83;;
44670;SDS011;48397;53.016;-2.260;2023-05-29T08:08:58;6.95;;;1.95;;
44670;SDS011;48397;53.016;-2.260;2023-05-29T08:11:26;4.35;;;1.60;;
44670;SDS011;48397;53.016;-2.260;2023-05-29T08:13:54;7.00;;;2.20;;
44670;SDS011;48397;53.016;-2.260;2023-05-29T08:16:23;8.38;;;2.33;;
44670;SDS011;48397;53.016;-2.260;2023-05-29T08:18:51;7.20;;;2.45;;
44670;SDS011;48397;53.016;-2.260;2023-05-29T08:21:20;6.03;;;1.70;;
44670;SDS011;48397;53.016;-2.260;2023-05-29T08:23:51;9.63;;;2.75;;
44670;SDS011;48397;53.016;-2.260;2023-05-29T08:26:21;6.65;;;2.10;;
44670;SDS011;48397;53.016;-2.260;2023-05-29T08:28:49;7.80;;;2.35;;
44670;SDS011;48397;53.016;-2.260;2023-05-29T08:31:17;8.23;;;2.10;;
44670;SDS011;48397;53.016;-2.260;2023-05-29T08:33:45;4.38;;;1.70;;
44670;SDS011;48397;53.016;-2.260;2023-05-29T08:36:15;7.32;;;2.28;;
44670;SDS011;48397;53.016;-2.260;2023-05-29T08:38:44;6.82;;;2.30;;
44670;SDS011;48397;53.016;-2.260;2023-05-29T08:41:15;5.45;;;2.08;;
44670;SDS011;48397;53.016;-2.260;2023-05-29T08:43:50;10.25;;;2.42;;
44670;SDS011;48397;53.016;-2.260;2023-05-29T08:46:20;10.77;;;2.30;;
44670;SDS011;48397;53.016;-2.260;2023-05-29T08:48:49;5.40;;;2.00;;
44670;SDS011;48397;53.016;-2.260;2023-05-29T08:51:20;7.85;;;2.47;;
44670;SDS011;48397;53.016;-2.260;2023-05-29T08:53:51;6.30;;;2.58;;
44670;SDS011;48397;53.016;-2.260;2023-05-29T08:56:22;6.40;;;1.67;;
44670;SDS011;48397;53.016;-2.260;2023-05-29T08:59:01;7.63;;;2.28;;
44670;SDS011;48397;53.016;-2.260;2023-05-29T09:01:34;4.90;;;1.88;;
44670;SDS011;48397;53.016;-2.260;2023-05-29T09:04:03;7.18;;;2.55;;
44670;SDS011;48397;53.016;-2.260;2023-05-29T09:06:32;11.77;;;3.10;;
44670;SDS011;48397;53.016;-2.260;2023-05-29T09:09:05;4.05;;;1.73;;
44670;SDS011;48397;53.016;-2.260;2023-05-29T09:11:32;10.13;;;3.15;;
44670;SDS011;48397;53.016;-2.260;2023-05-29T09:14:00;10.90;;;2.42;;
44670;SDS011;48397;53.016;-2.260;2023-05-29T09:16:29;8.07;;;2.20;;
44670;SDS011;48397;53.016;-2.260;2023-05-29T09:19:04;8.35;;;2.53;;
44670;SDS011;48397;53.016;-2.260;2023-05-29T09:21:39;7.95;;;2.45;;
44670;SDS011;48397;53.016;-2.260;2023-05-29T09:26:34;5.45;;;2.30;;
44670;SDS011;48397;53.016;-2.260;2023-05-29T09:29:03;8.55;;;2.30;;
44670;SDS011;48397;53.016;-2.260;2023-05-29T09:31:32;6.75;;;2.15;;
44670;SDS011;48397;53.016;-2.260;2023-05-29T09:34:13;7.82;;;2.10;;
44670;SDS011;48397;53.016;-2.260;2023-05-29T09:36:41;6.93;;;2.22;;
44670;SDS011;48397;53.016;-2.260;2023-05-29T09:39:09;4.30;;;1.52;;
44670;SDS011;48397;53.016;-2.260;2023-05-29T09:41:44;7.72;;;2.70;;
44670;SDS011;48397;53.016;-2.260;2023-05-29T09:44:14;9.90;;;2.70;;
44670;SDS011;48397;53.016;-2.260;2023-05-29T09:46:45;8.65;;;2.75;;
44670;SDS011;48397;53.016;-2.260;2023-05-29T09:49:16;10.82;;;3.30;;
44670;SDS011;48397;53.016;-2.260;2023-05-29T09:51:52;7.97;;;2.88;;
44670;SDS011;48397;53.016;-2.260;2023-05-29T09:54:23;7.70;;;2.45;;
44670;SDS011;48397;53.016;-2.260;2023-05-29T09:56:50;8.32;;;3.05;;
44670;SDS011;48397;53.016;-2.260;2023-05-29T09:59:20;12.57;;;3.45;;
44670;SDS011;48397;53.016;-2.260;2023-05-29T10:01:57;7.63;;;3.08;;
44670;SDS011;48397;53.016;-2.260;2023-05-29T10:04:31;5.88;;;2.88;;
44670;SDS011;48397;53.016;-2.260;2023-05-29T10:07:12;9.27;;;3.40;;
44670;SDS011;48397;53.016;-2.260;2023-05-29T10:10:04;8.20;;;2.85;;
44670;SDS011;48397;53.016;-2.260;2023-05-29T10:12:37;9.15;;;2.88;;
44670;SDS011;48397;53.016;-2.260;2023-05-29T10:15:11;7.22;;;3.17;;
44670;SDS011;48397;53.016;-2.260;2023-05-29T10:17:45;9.68;;;2.72;;
44670;SDS011;48397;53.016;-2.260;2023-05-29T10:20:36;9.65;;;2.88;;
44670;SDS011;48397;53.016;-2.260;2023-05-29T10:23:05;7.28;;;2.30;;
44670;SDS011;48397;53.016;-2.260;2023-05-29T10:25:35;6.78;;;2.45;;
44670;SDS011;48397;53.016;-2.260;2023-05-29T10:28:03;11.65;;;3.10;;
44670;SDS011;48397;53.016;-2.260;2023-05-29T10:30:43;7.65;;;2.65;;
44670;SDS011;48397;53.016;-2.260;2023-05-29T10:33:37;8.23;;;2.65;;
44670;SDS011;48397;53.016;-2.260;2023-05-29T10:36:24;12.73;;;2.55;;
44670;SDS011;48397;53.016;-2.260;2023-05-29T10:38:59;6.63;;;2.55;;
44670;SDS011;48397;53.016;-2.260;2023-05-29T10:41:28;12.02;;;5.45;;
44670;SDS011;48397;53.016;-2.260;2023-05-29T10:44:01;11.45;;;3.30;;
44670;SDS011;48397;53.016;-2.260;2023-05-29T10:49:18;6.55;;;2.97;;
44670;SDS011;48397;53.016;-2.260;2023-05-29T10:51:47;9.38;;;2.83;;
44670;SDS011;48397;53.016;-2.260;2023-05-29T10:54:15;9.82;;;2.80;;
44670;SDS011;48397;53.016;-2.260;2023-05-29T10:56:53;9.65;;;3.05;;
44670;SDS011;48397;53.016;-2.260;2023-05-29T10:59:23;7.10;;;3.13;;
44670;SDS011;48397;53.016;-2.260;2023-05-29T11:01:56;7.40;;;2.22;;
44670;SDS011;48397;53.016;-2.260;2023-05-29T11:04:25;7.63;;;2.88;;
44670;SDS011;48397;53.016;-2.260;2023-05-29T11:06:58;6.15;;;2.38;;
44670;SDS011;48397;53.016;-2.260;2023-05-29T11:15:02;13.20;;;2.33;;
44670;SDS011;48397;53.016;-2.260;2023-05-29T11:20:20;5.68;;;2.85;;
44670;SDS011;48397;53.016;-2.260;2023-05-29T11:23:01;8.10;;;3.10;;
44670;SDS011;48397;53.016;-2.260;2023-05-29T11:25:32;9.98;;;3.60;;
44670;SDS011;48397;53.016;-2.260;2023-05-29T11:28:02;8.68;;;3.30;;
44670;SDS011;48397;53.016;-2.260;2023-05-29T11:30:45;10.65;;;3.45;;
44670;SDS011;48397;53.016;-2.260;2023-05-29T11:33:23;8.75;;;3.88;;
44670;SDS011;48397;53.016;-2.260;2023-05-29T11:35:56;8.45;;;3.35;;
44670;SDS011;48397;53.016;-2.260;2023-05-29T11:38:26;10.38;;;3.28;;
44670;SDS011;48397;53.016;-2.260;2023-05-29T11:40:55;6.80;;;3.42;;
44670;SDS011;48397;53.016;-2.260;2023-05-29T11:43:24;12.98;;;4.28;;
44670;SDS011;48397;53.016;-2.260;2023-05-29T11:45:53;6.95;;;3.78;;
44670;SDS011;48397;53.016;-2.260;2023-05-29T11:48:21;9.13;;;4.10;;
44670;SDS011;48397;53.016;-2.260;2023-05-29T11:50:50;15.23;;;4.43;;
44670;SDS011;48397;53.016;-2.260;2023-05-29T11:53:18;9.48;;;4.20;;
44670;SDS011;48397;53.016;-2.260;2023-05-29T11:55:47;13.45;;;7.05;;
44670;SDS011;48397;53.016;-2.260;2023-05-29T11:58:15;9.55;;;5.38;;
44670;SDS011;48397;53.016;-2.260;2023-05-29T12:00:43;7.60;;;4.82;;
44670;SDS011;48397;53.016;-2.260;2023-05-29T12:03:14;10.77;;;3.75;;
44670;SDS011;48397;53.016;-2.260;2023-05-29T12:05:45;7.72;;;3.70;;
44670;SDS011;48397;53.016;-2.260;2023-05-29T12:08:16;8.85;;;4.00;;
44670;SDS011;48397;53.016;-2.260;2023-05-29T12:10:48;8.77;;;4.60;;
44670;SDS011;48397;53.016;-2.260;2023-05-29T12:13:20;12.02;;;4.82;;
44670;SDS011;48397;53.016;-2.260;2023-05-29T12:15:55;6.65;;;3.00;;
44670;SDS011;48397;53.016;-2.260;2023-05-29T12:18:27;7.88;;;4.20;;
44670;SDS011;48397;53.016;-2.260;2023-05-29T12:23:27;9.32;;;3.90;;
44670;SDS011;48397;53.016;-2.260;2023-05-29T12:25:56;7.07;;;3.30;;
44670;SDS011;48397;53.016;-2.260;2023-05-29T12:28:25;6.25;;;3.00;;
44670;SDS011;48397;53.016;-2.260;2023-05-29T12:30:57;9.70;;;4.65;;
44670;SDS011;48397;53.016;-2.260;2023-05-29T12:33:30;9.35;;;4.60;;
44670;SDS011;48397;53.016;-2.260;2023-05-29T12:36:06;8.85;;;4.53;;
44670;SDS011;48397;53.016;-2.260;2023-05-29T12:38:46;6.88;;;4.18;;
44670;SDS011;48397;53.016;-2.260;2023-05-29T12:41:28;13.95;;;5.20;;
44670;SDS011;48397;53.016;-2.260;2023-05-29T12:43:56;10.23;;;4.65;;
44670;SDS011;48397;53.016;-2.260;2023-05-29T12:46:25;7.68;;;4.82;;
44670;SDS011;48397;53.016;-2.260;2023-05-29T12:48:54;8.82;;;4.53;;
44670;SDS011;48397;53.016;-2.260;2023-05-29T12:51:24;12.68;;;5.07;;
44670;SDS011;48397;53.016;-2.260;2023-05-29T12:53:52;10.55;;;5.00;;
44670;SDS011;48397;53.016;-2.260;2023-05-29T12:56:22;11.40;;;5.28;;
44670;SDS011;48397;53.016;-2.260;2023-05-29T12:58:51;9.45;;;4.93;;
44670;SDS011;48397;53.016;-2.260;2023-05-29T13:01:19;9.43;;;5.00;;
44670;SDS011;48397;53.016;-2.260;2023-05-29T13:03:49;9.52;;;5.15;;
44670;SDS011;48397;53.016;-2.260;2023-05-29T13:06:17;12.43;;;5.72;;
44670;SDS011;48397;53.016;-2.260;2023-05-29T13:18:35;11.02;;;5.22;;
44670;SDS011;48397;53.016;-2.260;2023-05-29T13:23:32;12.10;;;4.90;;
44670;SDS011;48397;53.016;-2.260;2023-05-29T13:26:00;11.88;;;5.22;;
44670;SDS011;48397;53.016;-2.260;2023-05-29T13:28:28;9.63;;;4.57;;
44670;SDS011;48397;53.016;-2.260;2023-05-29T13:35:50;8.90;;;5.00;;
44670;SDS011;48397;53.016;-2.260;2023-05-29T13:40:45;11.35;;;4.88;;
44670;SDS011;48397;53.016;-2.260;2023-05-29T13:45:40;12.80;;;5.45;;
44670;SDS011;48397;53.016;-2.260;2023-05-29T13:48:08;9.15;;;4.65;;
44670;SDS011;48397;53.016;-2.260;2023-05-29T13:50:36;7.65;;;3.85;;
44670;SDS011;48397;53.016;-2.260;2023-05-29T13:53:03;10.93;;;3.85;;
44670;SDS011;48397;53.016;-2.260;2023-05-29T13:55:32;8.75;;;3.85;;
44670;SDS011;48397;53.016;-2.260;2023-05-29T13:57:59;8.50;;;3.80;;
44670;SDS011;48397;53.016;-2.260;2023-05-29T14:00:28;8.20;;;3.95;;
44670;SDS011;48397;53.016;-2.260;2023-05-29T14:02:56;6.32;;;3.17;;
44670;SDS011;48397;53.016;-2.260;2023-05-29T14:05:23;7.70;;;3.78;;
44670;SDS011;48397;53.016;-2.260;2023-05-29T14:10:19;9.93;;;3.30;;
44670;SDS011;48397;53.016;-2.260;2023-05-29T14:17:42;9.18;;;2.90;;
44670;SDS011;48397;53.016;-2.260;2023-05-29T14:22:37;8.88;;;4.13;;
44670;SDS011;48397;53.016;-2.260;2023-05-29T14:25:05;12.02;;;4.57;;
44670;SDS011;48397;53.016;-2.260;2023-05-29T14:27:33;9.82;;;4.40;;
44670;SDS011;48397;53.016;-2.260;2023-05-29T14:30:02;8.05;;;3.67;;
44670;SDS011;48397;53.016;-2.260;2023-05-29T14:32:31;11.15;;;3.80;;
44670;SDS011;48397;53.016;-2.260;2023-05-29T14:34:59;9.10;;;4.10;;
44670;SDS011;48397;53.016;-2.260;2023-05-29T14:37:28;9.90;;;4.20;;
44670;SDS011;48397;53.016;-2.260;2023-05-29T14:42:23;12.18;;;3.78;;
44670;SDS011;48397;53.016;-2.260;2023-05-29T14:47:18;10.52;;;3.90;;
44670;SDS011;48397;53.016;-2.260;2023-05-29T14:49:46;11.18;;;4.25;;
44670;SDS011;48397;53.016;-2.260;2023-05-29T14:52:14;7.53;;;3.35;;
44670;SDS011;48397;53.016;-2.260;2023-05-29T14:59:36;7.47;;;3.47;;
44670;SDS011;48397;53.016;-2.260;2023-05-29T15:04:32;8.57;;;3.70;;
44670;SDS011;48397;53.016;-2.260;2023-05-29T15:09:33;8.93;;;3.00;;
44670;SDS011;48397;53.016;-2.260;2023-05-29T15:12:01;8.10;;;3.22;;
44670;SDS011;48397;53.016;-2.260;2023-05-29T15:14:30;7.82;;;2.70;;
44670;SDS011;48397;53.016;-2.260;2023-05-29T15:19:25;7.00;;;3.15;;
44670;SDS011;48397;53.016;-2.260;2023-05-29T15:21:53;9.68;;;3.40;;
44670;SDS011;48397;53.016;-2.260;2023-05-29T15:24:21;10.45;;;4.38;;
44670;SDS011;48397;53.016;-2.260;2023-05-29T15:29:17;9.55;;;3.95;;
44670;SDS011;48397;53.016;-2.260;2023-05-29T15:31:45;9.77;;;4.00;;
44670;SDS011;48397;53.016;-2.260;2023-05-29T15:34:13;7.57;;;3.33;;
44670;SDS011;48397;53.016;-2.260;2023-05-29T15:36:40;9.15;;;3.60;;
44670;SDS011;48397;53.016;-2.260;2023-05-29T15:39:08;8.82;;;3.35;;
44670;SDS011;48397;53.016;-2.260;2023-05-29T15:41:36;8.77;;;3.60;;
44670;SDS011;48397;53.016;-2.260;2023-05-29T15:44:04;9.45;;;3.53;;
44670;SDS011;48397;53.016;-2.260;2023-05-29T15:46:32;9.88;;;3.30;;
44670;SDS011;48397;53.016;-2.260;2023-05-29T15:48:59;12.40;;;4.05;;
44670;SDS011;48397;53.016;-2.260;2023-05-29T15:53:54;10.10;;;3.70;;
44670;SDS011;48397;53.016;-2.260;2023-05-29T15:56:22;8.43;;;3.45;;
44670;SDS011;48397;53.016;-2.260;2023-05-29T15:58:54;9.07;;;3.63;;
44670;SDS011;48397;53.016;-2.260;2023-05-29T16:01:22;8.65;;;3.92;;
44670;SDS011;48397;53.016;-2.260;2023-05-29T16:03:49;6.97;;;3.45;;
44670;SDS011;48397;53.016;-2.260;2023-05-29T16:06:17;10.07;;;2.92;;
44670;SDS011;48397;53.016;-2.260;2023-05-29T16:08:45;11.10;;;3.92;;
44670;SDS011;48397;53.016;-2.260;2023-05-29T16:11:14;8.73;;;3.40;;
44670;SDS011;48397;53.016;-2.260;2023-05-29T16:13:42;12.95;;;3.70;;
44670;SDS011;48397;53.016;-2.260;2023-05-29T16:16:09;12.00;;;3.72;;
44670;SDS011;48397;53.016;-2.260;2023-05-29T16:18:37;6.95;;;3.22;;
44670;SDS011;48397;53.016;-2.260;2023-05-29T16:21:05;9.90;;;3.53;;
44670;SDS011;48397;53.016;-2.260;2023-05-29T16:23:33;10.23;;;3.50;;
44670;SDS011;48397;53.016;-2.260;2023-05-29T16:26:00;10.70;;;3.55;;
44670;SDS011;48397;53.016;-2.260;2023-05-29T16:28:28;7.78;;;3.30;;
44670;SDS011;48397;53.016;-2.260;2023-05-29T16:30:56;11.27;;;4.03;;
44670;SDS011;48397;53.016;-2.260;2023-05-29T16:33:24;5.57;;;2.58;;
44670;SDS011;48397;53.016;-2.260;2023-05-29T16:35:52;6.18;;;3.10;;
44670;SDS011;48397;53.016;-2.260;2023-05-29T16:38:19;7.53;;;3.20;;
44670;SDS011;48397;53.016;-2.260;2023-05-29T16:40:47;8.55;;;2.92;;
44670;SDS011;48397;53.016;-2.260;2023-05-29T16:43:15;6.35;;;3.03;;
44670;SDS011;48397;53.016;-2.260;2023-05-29T16:45:42;6.70;;;3.03;;
44670;SDS011;48397;53.016;-2.260;2023-05-29T16:48:10;9.88;;;3.13;;